Weather at Halfdan B Helideck

Public forecast

Using degrees Celsius for public forecast. Weather courtesy of forecast.io.

Closest aviation weather report (METAR) to Halfdan B Helideck

Report is more than 6 hours old.

Closest report is Halfdan A Helideck, 1.1 nm (2.0 km) WSW. Retrieved 2016/10/04 04:20 UTC (5 years ago):

EKHA 040420Z AUTO 11019KT 9999NDV 15/11 Q1037

Closest aviation forecast (TAF) to Halfdan B Helideck

Forecast is more than 12 hours old.

Closest forecast is Esbjerg Airport, 119.6 nm (221.5 km) E. Retrieved 2020/10/13 06:33 UTC (7 months ago):

TAF TAF EKEB 130523Z 1306/1415 14006KT 9999 SCT030 TEMPO 1306/1308 SCT020CB